sensor_id;sensor_type;location;lat;lon;timestamp;P1;durP1;ratioP1;P2;durP2;ratioP2
56269;SDS011;42176;43.240;27.880;2023-11-21T00:00:59;7.32;;;4.10;;
56269;SDS011;42176;43.240;27.880;2023-11-21T00:03:01;8.43;;;4.18;;
56269;SDS011;42176;43.240;27.880;2023-11-21T00:05:02;7.18;;;4.32;;
56269;SDS011;42176;43.240;27.880;2023-11-21T00:07:03;10.25;;;4.95;;
56269;SDS011;42176;43.240;27.880;2023-11-21T00:09:06;5.60;;;3.53;;
56269;SDS011;42176;43.240;27.880;2023-11-21T00:11:08;7.03;;;4.20;;
56269;SDS011;42176;43.240;27.880;2023-11-21T00:13:08;6.13;;;4.33;;
56269;SDS011;42176;43.240;27.880;2023-11-21T00:15:12;6.28;;;4.43;;
56269;SDS011;42176;43.240;27.880;2023-11-21T00:17:13;16.20;;;7.40;;
56269;SDS011;42176;43.240;27.880;2023-11-21T00:19:13;14.63;;;7.20;;
56269;SDS011;42176;43.240;27.880;2023-11-21T00:21:14;17.20;;;8.85;;
56269;SDS011;42176;43.240;27.880;2023-11-21T00:23:14;20.38;;;10.05;;
56269;SDS011;42176;43.240;27.880;2023-11-21T00:25:15;22.45;;;9.85;;
56269;SDS011;42176;43.240;27.880;2023-11-21T00:27:17;15.82;;;9.15;;
56269;SDS011;42176;43.240;27.880;2023-11-21T00:29:18;14.17;;;9.27;;
56269;SDS011;42176;43.240;27.880;2023-11-21T00:31:18;17.37;;;7.80;;
56269;SDS011;42176;43.240;27.880;2023-11-21T00:33:19;13.45;;;6.15;;
56269;SDS011;42176;43.240;27.880;2023-11-21T00:35:19;6.10;;;3.13;;
56269;SDS011;42176;43.240;27.880;2023-11-21T00:37:20;6.97;;;3.20;;
56269;SDS011;42176;43.240;27.880;2023-11-21T00:39:20;5.20;;;3.47;;
56269;SDS011;42176;43.240;27.880;2023-11-21T00:41:21;7.15;;;3.45;;
56269;SDS011;42176;43.240;27.880;2023-11-21T00:43:24;9.48;;;4.97;;
56269;SDS011;42176;43.240;27.880;2023-11-21T00:45:25;9.68;;;6.50;;
56269;SDS011;42176;43.240;27.880;2023-11-21T00:47:25;7.60;;;4.95;;
56269;SDS011;42176;43.240;27.880;2023-11-21T00:49:26;12.18;;;5.93;;
56269;SDS011;42176;43.240;27.880;2023-11-21T00:51:28;24.80;;;10.48;;
56269;SDS011;42176;43.240;27.880;2023-11-21T00:53:28;14.02;;;7.25;;
56269;SDS011;42176;43.240;27.880;2023-11-21T00:55:29;11.93;;;6.60;;
56269;SDS011;42176;43.240;27.880;2023-11-21T00:57:30;13.48;;;6.55;;
56269;SDS011;42176;43.240;27.880;2023-11-21T00:59:30;6.57;;;4.70;;
56269;SDS011;42176;43.240;27.880;2023-11-21T01:01:31;10.80;;;5.15;;
56269;SDS011;42176;43.240;27.880;2023-11-21T01:03:31;14.20;;;5.82;;
56269;SDS011;42176;43.240;27.880;2023-11-21T01:05:32;10.60;;;6.03;;
56269;SDS011;42176;43.240;27.880;2023-11-21T01:07:32;17.50;;;7.75;;
56269;SDS011;42176;43.240;27.880;2023-11-21T01:09:33;12.48;;;7.75;;
56269;SDS011;42176;43.240;27.880;2023-11-21T01:11:34;8.20;;;4.50;;
56269;SDS011;42176;43.240;27.880;2023-11-21T01:13:37;7.72;;;5.10;;
56269;SDS011;42176;43.240;27.880;2023-11-21T01:15:39;12.48;;;5.53;;
56269;SDS011;42176;43.240;27.880;2023-11-21T01:17:39;15.32;;;7.65;;
56269;SDS011;42176;43.240;27.880;2023-11-21T01:19:40;8.07;;;4.13;;
56269;SDS011;42176;43.240;27.880;2023-11-21T01:21:41;9.27;;;4.18;;
56269;SDS011;42176;43.240;27.880;2023-11-21T01:23:42;9.93;;;3.83;;
56269;SDS011;42176;43.240;27.880;2023-11-21T01:25:44;12.02;;;6.88;;
56269;SDS011;42176;43.240;27.880;2023-11-21T01:27:44;14.05;;;8.18;;
56269;SDS011;42176;43.240;27.880;2023-11-21T01:29:45;20.80;;;10.00;;
56269;SDS011;42176;43.240;27.880;2023-11-21T01:31:45;9.30;;;5.90;;
56269;SDS011;42176;43.240;27.880;2023-11-21T01:33:46;12.35;;;5.15;;
56269;SDS011;42176;43.240;27.880;2023-11-21T01:35:47;6.13;;;3.63;;
56269;SDS011;42176;43.240;27.880;2023-11-21T01:37:47;4.47;;;3.40;;
56269;SDS011;42176;43.240;27.880;2023-11-21T01:39:48;7.60;;;4.47;;
56269;SDS011;42176;43.240;27.880;2023-11-21T01:41:51;0.55;;;0.55;;
56269;SDS011;42176;43.240;27.880;2023-11-21T01:43:52;5.78;;;3.45;;
56269;SDS011;42176;43.240;27.880;2023-11-21T01:45:54;2.47;;;2.25;;
56269;SDS011;42176;43.240;27.880;2023-11-21T01:47:57;12.60;;;5.68;;
56269;SDS011;42176;43.240;27.880;2023-11-21T01:50:00;11.77;;;6.82;;
56269;SDS011;42176;43.240;27.880;2023-11-21T01:52:04;4.30;;;2.47;;
56269;SDS011;42176;43.240;27.880;2023-11-21T01:56:07;6.35;;;3.50;;
56269;SDS011;42176;43.240;27.880;2023-11-21T01:58:09;17.48;;;8.30;;
56269;SDS011;42176;43.240;27.880;2023-11-21T02:00:12;16.25;;;8.50;;
56269;SDS011;42176;43.240;27.880;2023-11-21T02:02:16;6.30;;;4.43;;
56269;SDS011;42176;43.240;27.880;2023-11-21T02:04:17;12.00;;;6.85;;
56269;SDS011;42176;43.240;27.880;2023-11-21T02:06:18;11.15;;;6.38;;
56269;SDS011;42176;43.240;27.880;2023-11-21T02:08:19;13.95;;;7.88;;
56269;SDS011;42176;43.240;27.880;2023-11-21T02:10:19;13.48;;;7.95;;
56269;SDS011;42176;43.240;27.880;2023-11-21T02:12:23;14.45;;;7.82;;
56269;SDS011;42176;43.240;27.880;2023-11-21T02:14:26;11.13;;;5.93;;
56269;SDS011;42176;43.240;27.880;2023-11-21T02:16:27;15.35;;;6.57;;
56269;SDS011;42176;43.240;27.880;2023-11-21T02:18:31;12.77;;;7.57;;
56269;SDS011;42176;43.240;27.880;2023-11-21T02:20:32;12.10;;;6.90;;
56269;SDS011;42176;43.240;27.880;2023-11-21T02:22:34;13.35;;;6.68;;
56269;SDS011;42176;43.240;27.880;2023-11-21T02:24:41;6.80;;;4.32;;
56269;SDS011;42176;43.240;27.880;2023-11-21T02:26:42;9.10;;;4.28;;
56269;SDS011;42176;43.240;27.880;2023-11-21T02:28:43;4.72;;;3.50;;
56269;SDS011;42176;43.240;27.880;2023-11-21T02:30:43;5.07;;;2.33;;
56269;SDS011;42176;43.240;27.880;2023-11-21T02:32:44;7.80;;;5.53;;
56269;SDS011;42176;43.240;27.880;2023-11-21T02:34:44;12.32;;;5.28;;
56269;SDS011;42176;43.240;27.880;2023-11-21T02:36:45;5.88;;;1.85;;
56269;SDS011;42176;43.240;27.880;2023-11-21T02:38:47;5.03;;;3.15;;
56269;SDS011;42176;43.240;27.880;2023-11-21T02:40:47;6.88;;;3.95;;
56269;SDS011;42176;43.240;27.880;2023-11-21T02:42:49;8.15;;;3.78;;
56269;SDS011;42176;43.240;27.880;2023-11-21T02:44:53;13.55;;;3.95;;
56269;SDS011;42176;43.240;27.880;2023-11-21T02:46:53;6.30;;;4.03;;
56269;SDS011;42176;43.240;27.880;2023-11-21T02:48:54;6.13;;;3.50;;
56269;SDS011;42176;43.240;27.880;2023-11-21T02:50:54;7.87;;;3.87;;
56269;SDS011;42176;43.240;27.880;2023-11-21T02:52:55;6.88;;;4.10;;
56269;SDS011;42176;43.240;27.880;2023-11-21T02:55:00;5.63;;;3.85;;
56269;SDS011;42176;43.240;27.880;2023-11-21T02:57:04;10.38;;;4.20;;
56269;SDS011;42176;43.240;27.880;2023-11-21T02:59:04;6.03;;;3.13;;
56269;SDS011;42176;43.240;27.880;2023-11-21T03:01:05;5.45;;;3.22;;
56269;SDS011;42176;43.240;27.880;2023-11-21T03:03:05;8.63;;;3.72;;
56269;SDS011;42176;43.240;27.880;2023-11-21T03:05:06;4.07;;;2.72;;
56269;SDS011;42176;43.240;27.880;2023-11-21T03:07:09;5.65;;;3.28;;
56269;SDS011;42176;43.240;27.880;2023-11-21T03:09:10;6.87;;;4.37;;
56269;SDS011;42176;43.240;27.880;2023-11-21T03:11:12;9.77;;;3.22;;
56269;SDS011;42176;43.240;27.880;2023-11-21T03:13:13;4.90;;;3.17;;
56269;SDS011;42176;43.240;27.880;2023-11-21T03:15:13;8.95;;;2.90;;
56269;SDS011;42176;43.240;27.880;2023-11-21T03:17:14;5.65;;;3.83;;
56269;SDS011;42176;43.240;27.880;2023-11-21T03:19:15;6.38;;;3.67;;
56269;SDS011;42176;43.240;27.880;2023-11-21T03:21:16;3.78;;;2.70;;
56269;SDS011;42176;43.240;27.880;2023-11-21T03:23:16;13.95;;;3.67;;
56269;SDS011;42176;43.240;27.880;2023-11-21T03:25:17;6.93;;;3.78;;
56269;SDS011;42176;43.240;27.880;2023-11-21T03:27:17;7.55;;;4.63;;
56269;SDS011;42176;43.240;27.880;2023-11-21T03:29:18;6.15;;;5.03;;
56269;SDS011;42176;43.240;27.880;2023-11-21T03:31:18;9.30;;;4.70;;
56269;SDS011;42176;43.240;27.880;2023-11-21T03:33:19;11.73;;;4.13;;
56269;SDS011;42176;43.240;27.880;2023-11-21T03:35:20;5.75;;;3.67;;
56269;SDS011;42176;43.240;27.880;2023-11-21T03:37:21;8.57;;;4.00;;
56269;SDS011;42176;43.240;27.880;2023-11-21T03:39:21;9.10;;;3.87;;
56269;SDS011;42176;43.240;27.880;2023-11-21T03:41:22;6.13;;;3.60;;
56269;SDS011;42176;43.240;27.880;2023-11-21T03:43:23;9.10;;;3.33;;
56269;SDS011;42176;43.240;27.880;2023-11-21T03:45:25;4.63;;;3.13;;
56269;SDS011;42176;43.240;27.880;2023-11-21T03:47:28;3.87;;;2.23;;
56269;SDS011;42176;43.240;27.880;2023-11-21T03:49:29;6.30;;;3.85;;
56269;SDS011;42176;43.240;27.880;2023-11-21T03:51:29;7.22;;;4.47;;
56269;SDS011;42176;43.240;27.880;2023-11-21T03:53:29;4.87;;;2.63;;
56269;SDS011;42176;43.240;27.880;2023-11-21T03:55:30;8.20;;;3.90;;
56269;SDS011;42176;43.240;27.880;2023-11-21T03:57:31;5.70;;;2.73;;
56269;SDS011;42176;43.240;27.880;2023-11-21T03:59:32;11.85;;;6.15;;
56269;SDS011;42176;43.240;27.880;2023-11-21T04:01:32;13.23;;;6.67;;
56269;SDS011;42176;43.240;27.880;2023-11-21T04:03:33;4.88;;;2.65;;
56269;SDS011;42176;43.240;27.880;2023-11-21T04:05:33;9.27;;;4.35;;
56269;SDS011;42176;43.240;27.880;2023-11-21T04:07:34;12.07;;;4.00;;
56269;SDS011;42176;43.240;27.880;2023-11-21T04:09:35;9.68;;;3.97;;
56269;SDS011;42176;43.240;27.880;2023-11-21T04:11:36;9.75;;;4.43;;
56269;SDS011;42176;43.240;27.880;2023-11-21T04:13:37;3.83;;;2.80;;
56269;SDS011;42176;43.240;27.880;2023-11-21T04:15:38;5.88;;;3.50;;
56269;SDS011;42176;43.240;27.880;2023-11-21T04:17:39;10.65;;;4.28;;
56269;SDS011;42176;43.240;27.880;2023-11-21T04:19:40;4.90;;;3.13;;
56269;SDS011;42176;43.240;27.880;2023-11-21T04:21:41;6.70;;;3.65;;
56269;SDS011;42176;43.240;27.880;2023-11-21T04:23:42;12.35;;;6.20;;
56269;SDS011;42176;43.240;27.880;2023-11-21T04:25:42;5.37;;;3.07;;
56269;SDS011;42176;43.240;27.880;2023-11-21T04:27:43;9.35;;;4.38;;
56269;SDS011;42176;43.240;27.880;2023-11-21T04:29:45;6.95;;;4.28;;
56269;SDS011;42176;43.240;27.880;2023-11-21T04:31:45;7.43;;;5.00;;
56269;SDS011;42176;43.240;27.880;2023-11-21T04:33:46;13.18;;;6.20;;
56269;SDS011;42176;43.240;27.880;2023-11-21T04:35:47;3.55;;;2.33;;
56269;SDS011;42176;43.240;27.880;2023-11-21T04:37:48;6.47;;;3.80;;
56269;SDS011;42176;43.240;27.880;2023-11-21T04:39:48;10.20;;;5.20;;
56269;SDS011;42176;43.240;27.880;2023-11-21T04:41:49;10.82;;;6.35;;
56269;SDS011;42176;43.240;27.880;2023-11-21T04:43:50;11.35;;;6.13;;
56269;SDS011;42176;43.240;27.880;2023-11-21T04:45:51;6.87;;;4.07;;
56269;SDS011;42176;43.240;27.880;2023-11-21T04:47:51;7.93;;;4.90;;
56269;SDS011;42176;43.240;27.880;2023-11-21T04:49:52;9.27;;;4.30;;
56269;SDS011;42176;43.240;27.880;2023-11-21T04:51:53;11.03;;;5.13;;
56269;SDS011;42176;43.240;27.880;2023-11-21T04:53:53;5.53;;;4.07;;
56269;SDS011;42176;43.240;27.880;2023-11-21T04:55:54;7.03;;;3.78;;
56269;SDS011;42176;43.240;27.880;2023-11-21T04:57:54;9.63;;;4.05;;
56269;SDS011;42176;43.240;27.880;2023-11-21T04:59:55;10.65;;;5.20;;
56269;SDS011;42176;43.240;27.880;2023-11-21T05:01:55;8.50;;;5.15;;
56269;SDS011;42176;43.240;27.880;2023-11-21T05:03:56;10.80;;;4.93;;
56269;SDS011;42176;43.240;27.880;2023-11-21T05:05:57;5.00;;;2.03;;
56269;SDS011;42176;43.240;27.880;2023-11-21T05:07:57;7.47;;;4.10;;
56269;SDS011;42176;43.240;27.880;2023-11-21T05:09:58;13.80;;;4.20;;
56269;SDS011;42176;43.240;27.880;2023-11-21T05:11:58;6.45;;;2.40;;
56269;SDS011;42176;43.240;27.880;2023-11-21T05:14:00;9.80;;;5.22;;
56269;SDS011;42176;43.240;27.880;2023-11-21T05:16:02;12.68;;;4.57;;
56269;SDS011;42176;43.240;27.880;2023-11-21T05:18:07;4.55;;;2.80;;
56269;SDS011;42176;43.240;27.880;2023-11-21T05:20:08;10.82;;;3.60;;
56269;SDS011;42176;43.240;27.880;2023-11-21T05:24:11;10.20;;;3.10;;
56269;SDS011;42176;43.240;27.880;2023-11-21T05:26:12;8.80;;;3.15;;
56269;SDS011;42176;43.240;27.880;2023-11-21T05:28:12;7.60;;;3.13;;
56269;SDS011;42176;43.240;27.880;2023-11-21T05:30:13;2.03;;;1.42;;
56269;SDS011;42176;43.240;27.880;2023-11-21T05:32:14;6.15;;;2.75;;
56269;SDS011;42176;43.240;27.880;2023-11-21T05:34:14;4.30;;;2.60;;
56269;SDS011;42176;43.240;27.880;2023-11-21T05:36:15;2.80;;;1.63;;
56269;SDS011;42176;43.240;27.880;2023-11-21T05:38:16;2.77;;;2.10;;
56269;SDS011;42176;43.240;27.880;2023-11-21T05:40:16;7.87;;;2.90;;
56269;SDS011;42176;43.240;27.880;2023-11-21T05:42:17;6.80;;;1.67;;
56269;SDS011;42176;43.240;27.880;2023-11-21T05:44:17;8.43;;;3.10;;
56269;SDS011;42176;43.240;27.880;2023-11-21T05:46:18;12.07;;;3.47;;
56269;SDS011;42176;43.240;27.880;2023-11-21T05:48:18;6.17;;;3.10;;
56269;SDS011;42176;43.240;27.880;2023-11-21T05:50:19;6.75;;;3.22;;
56269;SDS011;42176;43.240;27.880;2023-11-21T05:52:20;19.00;;;3.57;;
56269;SDS011;42176;43.240;27.880;2023-11-21T05:54:21;4.65;;;2.15;;
56269;SDS011;42176;43.240;27.880;2023-11-21T05:56:23;9.82;;;3.33;;
56269;SDS011;42176;43.240;27.880;2023-11-21T05:58:24;10.83;;;3.20;;
56269;SDS011;42176;43.240;27.880;2023-11-21T06:00:24;24.47;;;6.37;;
56269;SDS011;42176;43.240;27.880;2023-11-21T06:02:25;51.10;;;21.67;;
56269;SDS011;42176;43.240;27.880;2023-11-21T06:04:26;19.63;;;8.83;;
56269;SDS011;42176;43.240;27.880;2023-11-21T06:06:26;14.67;;;4.77;;
56269;SDS011;42176;43.240;27.880;2023-11-21T06:08:27;7.83;;;3.90;;
56269;SDS011;42176;43.240;27.880;2023-11-21T06:10:27;9.80;;;4.07;;
56269;SDS011;42176;43.240;27.880;2023-11-21T06:12:28;16.30;;;3.77;;
56269;SDS011;42176;43.240;27.880;2023-11-21T06:14:29;9.85;;;3.78;;
56269;SDS011;42176;43.240;27.880;2023-11-21T06:16:29;12.93;;;4.57;;
56269;SDS011;42176;43.240;27.880;2023-11-21T06:18:30;12.90;;;5.03;;
56269;SDS011;42176;43.240;27.880;2023-11-21T06:20:31;7.10;;;4.70;;
56269;SDS011;42176;43.240;27.880;2023-11-21T06:22:32;10.48;;;3.55;;
56269;SDS011;42176;43.240;27.880;2023-11-21T06:24:34;10.00;;;3.83;;
56269;SDS011;42176;43.240;27.880;2023-11-21T06:26:35;14.35;;;4.75;;
56269;SDS011;42176;43.240;27.880;2023-11-21T06:28:36;13.33;;;4.03;;
56269;SDS011;42176;43.240;27.880;2023-11-21T06:30:36;18.02;;;5.03;;
56269;SDS011;42176;43.240;27.880;2023-11-21T06:32:37;11.87;;;4.80;;
56269;SDS011;42176;43.240;27.880;2023-11-21T06:34:39;13.43;;;4.50;;
56269;SDS011;42176;43.240;27.880;2023-11-21T06:36:40;14.40;;;4.85;;
56269;SDS011;42176;43.240;27.880;2023-11-21T06:38:41;8.52;;;4.07;;
56269;SDS011;42176;43.240;27.880;2023-11-21T06:40:41;10.07;;;4.72;;
56269;SDS011;42176;43.240;27.880;2023-11-21T06:42:42;15.00;;;4.88;;
56269;SDS011;42176;43.240;27.880;2023-11-21T06:44:44;16.08;;;5.40;;
56269;SDS011;42176;43.240;27.880;2023-11-21T06:46:45;9.70;;;4.78;;
56269;SDS011;42176;43.240;27.880;2023-11-21T06:48:46;12.07;;;5.50;;
56269;SDS011;42176;43.240;27.880;2023-11-21T06:50:46;17.70;;;5.30;;
56269;SDS011;42176;43.240;27.880;2023-11-21T06:52:47;11.90;;;5.47;;
56269;SDS011;42176;43.240;27.880;2023-11-21T06:54:48;9.40;;;4.93;;
56269;SDS011;42176;43.240;27.880;2023-11-21T06:56:51;11.30;;;4.00;;
56269;SDS011;42176;43.240;27.880;2023-11-21T06:58:53;11.00;;;4.72;;
56269;SDS011;42176;43.240;27.880;2023-11-21T07:00:54;7.30;;;3.95;;
56269;SDS011;42176;43.240;27.880;2023-11-21T07:02:54;10.07;;;4.85;;
56269;SDS011;42176;43.240;27.880;2023-11-21T07:04:55;11.63;;;5.13;;
56269;SDS011;42176;43.240;27.880;2023-11-21T07:06:56;7.50;;;4.50;;
56269;SDS011;42176;43.240;27.880;2023-11-21T07:08:56;6.97;;;3.90;;
56269;SDS011;42176;43.240;27.880;2023-11-21T07:10:57;10.02;;;3.72;;
56269;SDS011;42176;43.240;27.880;2023-11-21T07:12:57;4.53;;;3.40;;
56269;SDS011;42176;43.240;27.880;2023-11-21T07:14:58;11.23;;;4.03;;
56269;SDS011;42176;43.240;27.880;2023-11-21T07:16:58;17.73;;;5.60;;
56269;SDS011;42176;43.240;27.880;2023-11-21T07:18:59;11.55;;;4.78;;
56269;SDS011;42176;43.240;27.880;2023-11-21T07:21:00;8.60;;;4.60;;
56269;SDS011;42176;43.240;27.880;2023-11-21T07:23:00;7.15;;;4.47;;
56269;SDS011;42176;43.240;27.880;2023-11-21T07:25:01;9.95;;;5.47;;
56269;SDS011;42176;43.240;27.880;2023-11-21T07:27:01;10.88;;;5.10;;
56269;SDS011;42176;43.240;27.880;2023-11-21T07:29:04;10.85;;;5.90;;
56269;SDS011;42176;43.240;27.880;2023-11-21T07:31:06;14.25;;;5.45;;
56269;SDS011;42176;43.240;27.880;2023-11-21T07:33:06;8.98;;;4.82;;
56269;SDS011;42176;43.240;27.880;2023-11-21T07:35:07;9.15;;;4.50;;
56269;SDS011;42176;43.240;27.880;2023-11-21T07:37:08;9.90;;;4.53;;
56269;SDS011;42176;43.240;27.880;2023-11-21T07:39:11;7.50;;;3.83;;
56269;SDS011;42176;43.240;27.880;2023-11-21T07:41:12;7.35;;;3.35;;
56269;SDS011;42176;43.240;27.880;2023-11-21T07:43:15;9.25;;;3.80;;
56269;SDS011;42176;43.240;27.880;2023-11-21T07:45:16;8.13;;;3.38;;
56269;SDS011;42176;43.240;27.880;2023-11-21T07:47:17;5.65;;;3.70;;
56269;SDS011;42176;43.240;27.880;2023-11-21T07:49:17;9.07;;;4.63;;
56269;SDS011;42176;43.240;27.880;2023-11-21T07:51:20;6.78;;;3.97;;
56269;SDS011;42176;43.240;27.880;2023-11-21T07:53:22;9.52;;;4.80;;
56269;SDS011;42176;43.240;27.880;2023-11-21T07:55:22;10.65;;;4.50;;
56269;SDS011;42176;43.240;27.880;2023-11-21T07:57:24;11.90;;;5.40;;
56269;SDS011;42176;43.240;27.880;2023-11-21T08:01:26;9.73;;;5.35;;
56269;SDS011;42176;43.240;27.880;2023-11-21T08:03:28;11.43;;;6.00;;
56269;SDS011;42176;43.240;27.880;2023-11-21T08:05:30;14.85;;;6.55;;
56269;SDS011;42176;43.240;27.880;2023-11-21T08:07:30;13.60;;;6.20;;
56269;SDS011;42176;43.240;27.880;2023-11-21T08:09:31;14.50;;;5.37;;
56269;SDS011;42176;43.240;27.880;2023-11-21T08:11:31;12.47;;;5.67;;
56269;SDS011;42176;43.240;27.880;2023-11-21T08:13:33;12.55;;;6.20;;
56269;SDS011;42176;43.240;27.880;2023-11-21T08:15:33;14.13;;;6.30;;
56269;SDS011;42176;43.240;27.880;2023-11-21T08:17:34;14.23;;;5.77;;
56269;SDS011;42176;43.240;27.880;2023-11-21T08:19:35;15.38;;;6.70;;
56269;SDS011;42176;43.240;27.880;2023-11-21T08:23:39;13.25;;;7.43;;
56269;SDS011;42176;43.240;27.880;2023-11-21T08:25:39;21.17;;;8.43;;
56269;SDS011;42176;43.240;27.880;2023-11-21T08:27:40;10.37;;;5.90;;
56269;SDS011;42176;43.240;27.880;2023-11-21T08:29:40;13.37;;;5.37;;
56269;SDS011;42176;43.240;27.880;2023-11-21T08:31:42;16.60;;;5.28;;
56269;SDS011;42176;43.240;27.880;2023-11-21T08:33:42;12.03;;;5.03;;
56269;SDS011;42176;43.240;27.880;2023-11-21T08:35:43;15.20;;;4.40;;
56269;SDS011;42176;43.240;27.880;2023-11-21T08:37:44;11.45;;;4.45;;
56269;SDS011;42176;43.240;27.880;2023-11-21T08:39:44;5.30;;;3.60;;
56269;SDS011;42176;43.240;27.880;2023-11-21T08:41:45;8.90;;;4.47;;
56269;SDS011;42176;43.240;27.880;2023-11-21T08:43:50;22.43;;;5.27;;
56269;SDS011;42176;43.240;27.880;2023-11-21T08:45:51;14.93;;;4.57;;
56269;SDS011;42176;43.240;27.880;2023-11-21T08:47:52;7.73;;;4.97;;
56269;SDS011;42176;43.240;27.880;2023-11-21T08:49:52;10.07;;;5.63;;
56269;SDS011;42176;43.240;27.880;2023-11-21T08:51:53;11.83;;;7.10;;
56269;SDS011;42176;43.240;27.880;2023-11-21T08:53:55;14.23;;;5.95;;
56269;SDS011;42176;43.240;27.880;2023-11-21T08:55:59;11.35;;;4.97;;
56269;SDS011;42176;43.240;27.880;2023-11-21T08:58:00;10.50;;;5.40;;
56269;SDS011;42176;43.240;27.880;2023-11-21T09:00:01;13.17;;;5.73;;
56269;SDS011;42176;43.240;27.880;2023-11-21T09:02:11;15.35;;;5.00;;
56269;SDS011;42176;43.240;27.880;2023-11-21T09:04:11;11.00;;;5.07;;
56269;SDS011;42176;43.240;27.880;2023-11-21T09:06:12;19.15;;;5.85;;
56269;SDS011;42176;43.240;27.880;2023-11-21T09:08:14;9.70;;;5.15;;
56269;SDS011;42176;43.240;27.880;2023-11-21T09:10:14;13.97;;;5.77;;
56269;SDS011;42176;43.240;27.880;2023-11-21T09:12:15;15.43;;;5.77;;
56269;SDS011;42176;43.240;27.880;2023-11-21T09:14:17;13.52;;;5.63;;
56269;SDS011;42176;43.240;27.880;2023-11-21T09:16:18;8.07;;;5.07;;
56269;SDS011;42176;43.240;27.880;2023-11-21T09:18:18;12.87;;;5.83;;
56269;SDS011;42176;43.240;27.880;2023-11-21T09:20:19;14.00;;;5.10;;
56269;SDS011;42176;43.240;27.880;2023-11-21T09:22:22;15.27;;;6.65;;
56269;SDS011;42176;43.240;27.880;2023-11-21T09:24:25;10.77;;;5.35;;
56269;SDS011;42176;43.240;27.880;2023-11-21T09:26:25;16.50;;;5.80;;
56269;SDS011;42176;43.240;27.880;2023-11-21T09:28:26;15.03;;;4.50;;
56269;SDS011;42176;43.240;27.880;2023-11-21T09:30:27;19.05;;;5.22;;
56269;SDS011;42176;43.240;27.880;2023-11-21T09:32:28;13.63;;;4.73;;
56269;SDS011;42176;43.240;27.880;2023-11-21T09:36:30;8.82;;;4.13;;
56269;SDS011;42176;43.240;27.880;2023-11-21T09:38:31;8.93;;;4.67;;
56269;SDS011;42176;43.240;27.880;2023-11-21T09:40:31;4.60;;;2.87;;
56269;SDS011;42176;43.240;27.880;2023-11-21T09:42:35;6.43;;;3.93;;
56269;SDS011;42176;43.240;27.880;2023-11-21T09:44:44;19.08;;;5.15;;
56269;SDS011;42176;43.240;27.880;2023-11-21T09:46:48;10.65;;;4.60;;
56269;SDS011;42176;43.240;27.880;2023-11-21T09:48:54;10.00;;;4.70;;
56269;SDS011;42176;43.240;27.880;2023-11-21T09:50:59;8.95;;;4.32;;
56269;SDS011;42176;43.240;27.880;2023-11-21T09:53:07;8.63;;;4.78;;
56269;SDS011;42176;43.240;27.880;2023-11-21T09:55:21;7.82;;;4.32;;
56269;SDS011;42176;43.240;27.880;2023-11-21T09:57:22;8.50;;;4.03;;
56269;SDS011;42176;43.240;27.880;2023-11-21T09:59:23;4.22;;;3.25;;
56269;SDS011;42176;43.240;27.880;2023-11-21T10:01:24;3.67;;;3.03;;
56269;SDS011;42176;43.240;27.880;2023-11-21T10:03:26;11.52;;;3.63;;
56269;SDS011;42176;43.240;27.880;2023-11-21T10:05:28;6.25;;;3.30;;
56269;SDS011;42176;43.240;27.880;2023-11-21T10:07:29;5.93;;;3.60;;
56269;SDS011;42176;43.240;27.880;2023-11-21T10:09:32;9.15;;;3.78;;
56269;SDS011;42176;43.240;27.880;2023-11-21T10:11:33;9.20;;;2.90;;
56269;SDS011;42176;43.240;27.880;2023-11-21T10:13:34;5.40;;;3.10;;
56269;SDS011;42176;43.240;27.880;2023-11-21T10:15:35;4.95;;;2.67;;
56269;SDS011;42176;43.240;27.880;2023-11-21T10:17:36;7.03;;;2.90;;
56269;SDS011;42176;43.240;27.880;2023-11-21T10:19:43;9.27;;;2.97;;
56269;SDS011;42176;43.240;27.880;2023-11-21T10:21:47;4.93;;;2.30;;
56269;SDS011;42176;43.240;27.880;2023-11-21T10:23:47;9.07;;;2.90;;
56269;SDS011;42176;43.240;27.880;2023-11-21T10:25:48;5.97;;;2.53;;
56269;SDS011;42176;43.240;27.880;2023-11-21T10:27:56;10.13;;;3.40;;
56269;SDS011;42176;43.240;27.880;2023-11-21T10:29:58;12.25;;;3.60;;
56269;SDS011;42176;43.240;27.880;2023-11-21T10:32:01;12.07;;;2.65;;
56269;SDS011;42176;43.240;27.880;2023-11-21T10:34:16;8.32;;;2.33;;
56269;SDS011;42176;43.240;27.880;2023-11-21T10:36:27;6.40;;;3.30;;
56269;SDS011;42176;43.240;27.880;2023-11-21T10:38:32;9.75;;;3.05;;
56269;SDS011;42176;43.240;27.880;2023-11-21T10:40:44;14.63;;;2.58;;
56269;SDS011;42176;43.240;27.880;2023-11-21T10:42:49;6.00;;;2.20;;
56269;SDS011;42176;43.240;27.880;2023-11-21T10:44:50;8.68;;;4.07;;
56269;SDS011;42176;43.240;27.880;2023-11-21T10:46:52;10.35;;;4.20;;
56269;SDS011;42176;43.240;27.880;2023-11-21T10:48:57;4.68;;;2.10;;
56269;SDS011;42176;43.240;27.880;2023-11-21T10:50:57;10.60;;;5.53;;
56269;SDS011;42176;43.240;27.880;2023-11-21T10:52:58;9.15;;;4.50;;
56269;SDS011;42176;43.240;27.880;2023-11-21T10:54:59;13.50;;;3.30;;
56269;SDS011;42176;43.240;27.880;2023-11-21T10:57:04;3.75;;;2.15;;
56269;SDS011;42176;43.240;27.880;2023-11-21T10:59:04;6.60;;;2.35;;
56269;SDS011;42176;43.240;27.880;2023-11-21T11:01:06;9.73;;;2.90;;
56269;SDS011;42176;43.240;27.880;2023-11-21T11:03:08;4.22;;;2.22;;
56269;SDS011;42176;43.240;27.880;2023-11-21T11:05:15;5.00;;;2.13;;
56269;SDS011;42176;43.240;27.880;2023-11-21T11:07:19;5.68;;;1.92;;
56269;SDS011;42176;43.240;27.880;2023-11-21T11:09:24;27.58;;;3.00;;
56269;SDS011;42176;43.240;27.880;2023-11-21T11:11:26;3.88;;;1.92;;
56269;SDS011;42176;43.240;27.880;2023-11-21T11:13:27;9.40;;;2.30;;
56269;SDS011;42176;43.240;27.880;2023-11-21T11:15:28;7.83;;;2.10;;
56269;SDS011;42176;43.240;27.880;2023-11-21T11:17:28;3.00;;;1.93;;
56269;SDS011;42176;43.240;27.880;2023-11-21T11:19:29;3.95;;;2.70;;
56269;SDS011;42176;43.240;27.880;2023-11-21T11:23:49;9.38;;;2.25;;
56269;SDS011;42176;43.240;27.880;2023-11-21T11:28:29;6.93;;;2.67;;
56269;SDS011;42176;43.240;27.880;2023-11-21T11:33:04;2.43;;;1.70;;
56269;SDS011;42176;43.240;27.880;2023-11-21T11:37:51;3.80;;;1.52;;
56269;SDS011;42176;43.240;27.880;2023-11-21T11:39:51;3.47;;;1.57;;
56269;SDS011;42176;43.240;27.880;2023-11-21T11:41:55;3.13;;;1.38;;
56269;SDS011;42176;43.240;27.880;2023-11-21T11:43:59;4.90;;;1.80;;
56269;SDS011;42176;43.240;27.880;2023-11-21T11:46:02;2.17;;;1.30;;
56269;SDS011;42176;43.240;27.880;2023-11-21T11:48:07;3.60;;;1.42;;
56269;SDS011;42176;43.240;27.880;2023-11-21T11:50:09;2.03;;;1.23;;
56269;SDS011;42176;43.240;27.880;2023-11-21T11:54:37;7.97;;;1.70;;
56269;SDS011;42176;43.240;27.880;2023-11-21T11:56:38;2.60;;;1.55;;
56269;SDS011;42176;43.240;27.880;2023-11-21T11:58:40;4.53;;;2.15;;
56269;SDS011;42176;43.240;27.880;2023-11-21T12:00:41;4.82;;;1.73;;
56269;SDS011;42176;43.240;27.880;2023-11-21T12:02:44;2.93;;;1.77;;
56269;SDS011;42176;43.240;27.880;2023-11-21T12:04:46;2.28;;;1.08;;
56269;SDS011;42176;43.240;27.880;2023-11-21T12:06:46;2.80;;;1.33;;
56269;SDS011;42176;43.240;27.880;2023-11-21T12:08:47;7.13;;;1.80;;
56269;SDS011;42176;43.240;27.880;2023-11-21T12:10:48;8.30;;;1.80;;
56269;SDS011;42176;43.240;27.880;2023-11-21T12:12:50;5.93;;;2.35;;
56269;SDS011;42176;43.240;27.880;2023-11-21T12:14:54;2.17;;;1.48;;
56269;SDS011;42176;43.240;27.880;2023-11-21T12:16:55;6.47;;;1.57;;
56269;SDS011;42176;43.240;27.880;2023-11-21T12:18:56;1.93;;;1.10;;